Time;durP1;ratioP1;P1;durP2;ratioP2;P2;SDS_P1;SDS_P2;PMS_P1;PMS_P2;Temp;Humidity;BMP_temperature;BMP_pressure;BME280_temperature;BME280_humidity;BME280_pressure;Samples;Min_cycle;Max_cycle;Signal;HPM_P1;HPM_P2
2022/12/31 00:00:12;;;;;;;1.42;1.33;;;;;;;11.44;100.00;100242.75;5094545;28;20464;-92
2022/12/31 00:02:46;;;;;;;1.50;1.40;;;;;;;11.41;100.00;100235.06;5095181;28;20491;-92
2022/12/31 00:05:14;;;;;;;1.50;1.40;;;;;;;11.43;100.00;100241.03;5095117;28;20028;-91
2022/12/31 00:07:40;;;;;;;1.60;1.50;;;;;;;11.44;100.00;100231.50;5094778;28;20491;-91
2022/12/31 00:10:40;;;;;;;1.20;1.20;;;;;;;11.46;100.00;100234.91;5094194;28;20020;-91
2022/12/31 00:13:23;;;;;;;0.98;0.88;;;;;;;11.44;100.00;100240.13;5086099;28;20070;-91
2022/12/31 00:15:54;;;;;;;0.98;0.98;;;;;;;11.43;100.00;100238.44;5094148;28;20028;-92
2022/12/31 00:18:20;;;;;;;1.40;1.30;;;;;;;11.43;100.00;100240.19;5094045;28;20020;-92
2022/12/31 00:20:49;;;;;;;1.13;1.02;;;;;;;11.46;100.00;100245.31;5094948;28;20028;-91
2022/12/31 00:23:17;;;;;;;1.20;1.10;;;;;;;11.47;100.00;100238.34;5094415;28;20423;-90
2022/12/31 00:25:48;;;;;;;1.23;1.13;;;;;;;11.46;100.00;100242.72;5094354;28;20026;-90
2022/12/31 00:28:19;;;;;;;1.30;1.20;;;;;;;11.44;100.00;100236.69;5094238;28;20032;-91
2022/12/31 00:30:51;;;;;;;1.10;1.10;;;;;;;11.45;100.00;100243.59;5094464;28;20028;-91
2022/12/31 00:33:19;;;;;;;1.20;1.10;;;;;;;11.46;100.00;100239.25;5094498;28;20024;-92
2022/12/31 00:35:53;;;;;;;1.50;1.40;;;;;;;11.46;100.00;100227.13;5094113;28;20035;-92
2022/12/31 00:38:39;;;;;;;1.10;1.10;;;;;;;11.44;100.00;100221.13;5093931;28;20035;-92
2022/12/31 00:41:05;;;;;;;1.00;1.00;;;;;;;11.44;100.00;100216.75;5096660;22;20059;-91
2022/12/31 00:43:53;;;;;;;1.05;1.05;;;;;;;11.48;100.00;100222.75;5054362;28;20052;-91
2022/12/31 00:46:24;;;;;;;1.10;1.00;;;;;;;11.46;100.00;100216.72;5053633;28;20020;-91
2022/12/31 00:48:50;;;;;;;1.20;1.10;;;;;;;11.47;100.00;100226.22;5054045;28;20035;-92
2022/12/31 00:51:19;;;;;;;1.43;1.07;;;;;;;11.48;100.00;100224.47;5053841;28;20025;-91
2022/12/31 00:53:59;;;;;;;0.90;0.90;;;;;;;11.46;100.00;100214.13;5053520;28;20772;-92
2022/12/31 00:56:28;;;;;;;0.90;0.90;;;;;;;11.44;100.00;100211.56;5053935;28;20084;-92
2022/12/31 00:58:54;;;;;;;0.80;0.80;;;;;;;11.47;100.00;100212.38;5054000;28;20059;-93
2022/12/31 01:04:53;;;;;;;0.90;0.90;;;;;;;11.49;100.00;100206.22;5053854;28;20594;-92
2022/12/31 01:07:23;;;;;;;0.80;0.80;;;;;;;11.49;100.00;100205.38;5053878;28;20025;-92
2022/12/31 01:09:55;;;;;;;0.82;0.80;;;;;;;11.46;100.00;100203.75;5033794;28;20466;-92
2022/12/31 01:12:20;;;;;;;0.80;0.80;;;;;;;11.48;100.00;100209.75;5028827;28;20033;-92
2022/12/31 01:14:49;;;;;;;0.97;0.90;;;;;;;11.48;100.00;100201.94;5033986;28;20022;-93
2022/12/31 01:17:16;;;;;;;0.93;0.93;;;;;;;11.50;100.00;100194.94;5024970;22;20057;-92
2022/12/31 01:19:46;;;;;;;;;;;;;;;11.49;100.00;100185.44;5014862;28;20029;-93
2022/12/31 01:22:11;;;;;;;0.75;0.75;;;;;;;11.49;100.00;100193.22;5013735;28;19919;-92
2022/12/31 01:24:57;;;;;;;0.80;0.80;;;;;;;11.49;100.00;100197.59;5014119;28;20018;-92
2022/12/31 01:27:32;;;;;;;0.68;0.68;;;;;;;11.46;100.00;100202.88;5013963;28;20022;-92
2022/12/31 01:30:04;;;;;;;1.27;0.82;;;;;;;11.44;100.00;100200.31;5016333;28;20490;-92
2022/12/31 01:32:29;;;;;;;0.50;0.50;;;;;;;11.45;100.00;100204.63;5018006;28;20033;-93
2022/12/31 01:35:00;;;;;;;0.53;0.50;;;;;;;11.45;100.00;100217.63;5018032;28;20379;-92
2022/12/31 01:37:28;;;;;;;0.50;0.50;;;;;;;11.46;100.00;100218.47;5017428;28;20032;-93
2022/12/31 01:40:10;;;;;;;0.73;0.73;;;;;;;11.43;100.00;100216.81;5018049;28;20053;-92
2022/12/31 01:42:56;;;;;;;0.43;0.43;;;;;;;11.41;100.00;100218.59;5017322;28;20467;-93
2022/12/31 01:45:25;;;;;;;0.32;0.32;;;;;;;11.40;100.00;100219.50;5099896;22;20340;-93
2022/12/31 01:47:58;;;;;;;0.32;0.32;;;;;;;11.38;100.00;100211.75;5077390;28;20028;-93
2022/12/31 01:50:48;;;;;;;0.35;0.35;;;;;;;11.37;100.00;100224.78;5077153;28;20029;-92
2022/12/31 01:53:14;;;;;;;0.50;0.50;;;;;;;11.35;100.00;100242.16;5077254;28;20513;-92
2022/12/31 01:55:46;;;;;;;0.98;0.57;;;;;;;11.34;100.00;100258.66;5077422;28;20114;-91
2022/12/31 01:58:22;;;;;;;0.60;0.60;;;;;;;11.31;100.00;100288.16;5077247;28;20025;-93
2022/12/31 02:00:53;;;;;;;0.80;0.80;;;;;;;11.33;100.00;100275.13;5084724;28;20112;-94
2022/12/31 02:03:21;;;;;;;0.40;0.40;;;;;;;11.31;100.00;100279.50;5084285;28;20056;-94
2022/12/31 02:05:59;;;;;;;0.50;0.50;;;;;;;11.32;100.00;100224.06;5077235;28;20480;-95
2022/12/31 02:08:24;;;;;;;0.40;0.40;;;;;;;11.31;100.00;100219.75;5077161;28;20028;-94
2022/12/31 02:10:53;;;;;;;0.50;0.50;;;;;;;11.32;100.00;100234.44;5085852;22;20037;-94
2022/12/31 02:13:24;;;;;;;0.55;0.50;;;;;;;11.30;100.00;100231.03;5060308;28;20029;-94
2022/12/31 02:16:20;;;;;;;0.65;0.65;;;;;;;11.31;100.00;100238.81;5056574;28;20041;-94
2022/12/31 02:18:55;;;;;;;;;;;;;;;11.33;100.00;100256.94;5057749;28;20025;-95
2022/12/31 02:21:58;;;;;;;0.43;0.43;;;;;;;11.31;100.00;100262.19;5056495;28;19919;-94
2022/12/31 02:25:03;;;;;;;0.70;0.70;;;;;;;11.30;100.00;100270.88;5056539;28;20029;-94
2022/12/31 02:27:59;;;;;;;0.80;0.80;;;;;;;11.29;100.00;100279.56;5056781;28;20028;-95
2022/12/31 02:33:36;;;;;;;1.35;1.25;;;;;;;11.33;100.00;100285.53;5083665;22;20534;-94
2022/12/31 02:36:10;;;;;;;0.80;0.80;;;;;;;11.33;100.00;100285.53;5043425;22;20060;-95
2022/12/31 02:38:55;;;;;;;0.70;0.70;;;;;;;11.34;100.00;100289.81;5043469;22;20046;-95
2022/12/31 02:44:45;;;;;;;0.80;0.80;;;;;;;11.30;100.00;100285.59;5036144;28;20052;-95
2022/12/31 02:47:38;;;;;;;0.80;0.80;;;;;;;11.31;100.00;100292.50;5035660;28;20527;-95
2022/12/31 02:50:54;;;;;;;0.52;0.52;;;;;;;11.24;100.00;100282.28;5035572;28;20021;-94
2022/12/31 02:53:48;;;;;;;0.50;0.50;;;;;;;11.22;100.00;100291.00;5019656;28;20038;-93
2022/12/31 02:56:26;;;;;;;0.50;0.50;;;;;;;11.21;100.00;100281.50;5035112;28;20164;-93
2022/12/31 03:02:25;;;;;;;0.47;0.47;;;;;;;11.17;100.00;100275.53;5036323;28;20060;-94
2022/12/31 03:04:55;;;;;;;0.30;0.30;;;;;;;11.16;100.00;100278.19;5036126;28;20083;-94
2022/12/31 03:07:26;;;;;;;0.20;0.20;;;;;;;11.15;100.00;100268.69;5035898;28;20025;-94
2022/12/31 03:09:53;;;;;;;0.30;0.30;;;;;;;11.15;100.00;100277.31;5036379;28;20163;-94
2022/12/31 03:15:37;;;;;;;;;;;;;;;11.17;100.00;100259.94;5036312;28;20091;-94
2022/12/31 03:18:17;;;;;;;0.22;0.22;;;;;;;11.16;100.00;100252.22;5035723;28;19913;-94
2022/12/31 03:27:21;;;;;;;0.80;0.80;;;;;;;11.13;100.00;100233.22;5035557;28;20052;-93
2022/12/31 03:29:52;;;;;;;0.60;0.60;;;;;;;11.15;100.00;100246.16;5035719;28;20056;-93
2022/12/31 03:32:20;;;;;;;0.40;0.40;;;;;;;11.12;100.00;100225.47;5035511;28;20021;-94
2022/12/31 03:34:46;;;;;;;0.60;0.60;;;;;;;11.12;100.00;100243.66;5035327;28;20029;-94
2022/12/31 03:37:11;;;;;;;0.70;0.70;;;;;;;11.10;100.00;100235.88;5034951;28;20025;-93
2022/12/31 03:39:43;;;;;;;0.80;0.80;;;;;;;11.12;100.00;100233.25;5035180;28;20041;-94
2022/12/31 03:42:14;;;;;;;0.60;0.60;;;;;;;11.10;100.00;100224.66;5035499;28;20049;-93
2022/12/31 03:44:51;;;;;;;0.70;0.70;;;;;;;11.12;100.00;100228.06;5035341;28;20030;-94
2022/12/31 03:47:16;;;;;;;0.70;0.70;;;;;;;11.11;100.00;100216.81;5082073;22;20091;-95
2022/12/31 03:49:45;;;;;;;0.83;0.83;;;;;;;11.12;100.00;100220.28;5035026;28;20056;-94
2022/12/31 03:52:20;;;;;;;0.70;0.70;;;;;;;11.13;100.00;100214.19;5033984;28;20509;-94
2022/12/31 03:54:54;;;;;;;0.80;0.80;;;;;;;11.13;100.00;100214.19;5058092;22;20049;-94
2022/12/31 03:57:25;;;;;;;0.50;0.50;;;;;;;11.12;100.00;100209.91;5054917;28;20052;-94
2022/12/31 03:59:53;;;;;;;0.57;0.57;;;;;;;11.15;100.00;100206.34;5054688;28;20077;-94
2022/12/31 04:02:18;;;;;;;0.50;0.50;;;;;;;11.13;100.00;100216.78;5079033;22;20057;-94
2022/12/31 04:04:47;;;;;;;0.70;0.70;;;;;;;11.13;100.00;100202.03;5054878;28;20024;-94
2022/12/31 04:07:15;;;;;;;0.40;0.40;;;;;;;11.12;100.00;100207.28;5055045;28;20420;-94
2022/12/31 04:09:46;;;;;;;0.40;0.40;;;;;;;11.13;100.00;100227.19;5055035;28;20025;-94
2022/12/31 04:12:18;;;;;;;1.00;0.60;;;;;;;11.12;100.00;100208.13;5054496;28;20036;-95
2022/12/31 04:14:49;;;;;;;0.40;0.40;;;;;;;11.13;100.00;100206.41;5054928;28;20025;-94
2022/12/31 04:17:18;;;;;;;0.30;0.30;;;;;;;11.17;100.00;100212.34;5054158;28;20029;-94
2022/12/31 04:19:46;;;;;;;0.40;0.40;;;;;;;11.15;100.00;100206.34;5054714;28;20029;-94
2022/12/31 04:22:21;;;;;;;0.30;0.30;;;;;;;11.15;100.00;100214.16;5054150;28;20457;-94
2022/12/31 04:24:52;;;;;;;0.40;0.40;;;;;;;11.17;100.00;100212.34;5054516;28;20032;-94
2022/12/31 04:27:21;;;;;;;0.50;0.50;;;;;;;11.19;100.00;100211.41;5054382;28;20029;-94
2022/12/31 04:29:49;;;;;;;0.30;0.30;;;;;;;11.19;100.00;100216.59;5054513;28;20021;-94
2022/12/31 04:32:21;;;;;;;0.20;0.20;;;;;;;11.20;100.00;100205.31;5054524;28;20025;-94
2022/12/31 04:34:46;;;;;;;0.28;0.28;;;;;;;11.22;100.00;100200.94;5054529;28;20104;-95
2022/12/31 04:37:14;;;;;;;0.20;0.20;;;;;;;11.25;100.00;100198.28;5054270;28;20140;-95
2022/12/31 04:39:47;;;;;;;0.20;0.20;;;;;;;11.28;100.00;100192.97;5054323;28;20017;-96
2022/12/31 04:42:15;;;;;;;0.28;0.28;;;;;;;11.28;100.00;100169.59;5054307;28;20040;-96
2022/12/31 04:44:43;;;;;;;0.28;0.28;;;;;;;11.32;100.00;100187.69;5054159;28;20160;-94
2022/12/31 04:47:17;;;;;;;0.30;0.30;;;;;;;11.34;100.00;100230.91;5053703;28;20021;-95
2022/12/31 04:49:45;;;;;;;1.20;1.10;;;;;;;11.33;100.00;100234.41;5053713;28;20013;-94
2022/12/31 04:52:18;;;;;;;1.33;1.33;;;;;;;11.24;100.00;100219.94;5054239;28;20024;-95
2022/12/31 04:54:47;;;;;;;1.83;1.73;;;;;;;11.17;100.00;100195.03;5053801;28;20025;-95
2022/12/31 04:57:12;;;;;;;1.70;1.60;;;;;;;11.16;100.00;100201.09;5053232;28;20040;-95
2022/12/31 04:59:38;;;;;;;1.70;1.60;;;;;;;11.24;100.00;100222.53;5073532;22;20068;-94
2022/12/31 05:02:12;;;;;;;1.37;1.30;;;;;;;11.31;100.00;100237.94;5033581;28;20437;-95
2022/12/31 05:04:40;;;;;;;1.08;1.08;;;;;;;11.34;100.00;100219.69;5034053;28;20033;-94
2022/12/31 05:07:14;;;;;;;0.82;0.82;;;;;;;11.40;100.00;100230.75;5033797;28;20057;-94
2022/12/31 05:09:45;;;;;;;1.30;0.98;;;;;;;11.53;100.00;100220.84;5033902;28;20028;-95
2022/12/31 05:12:10;;;;;;;1.85;0.98;;;;;;;11.69;100.00;100246.38;5039939;22;20065;-96
2022/12/31 05:14:38;;;;;;;2.93;0.80;;;;;;;11.79;100.00;100240.03;5033790;28;20044;-94
2022/12/31 05:17:12;;;;;;;3.03;0.90;;;;;;;11.97;100.00;100238.63;5075093;22;20049;-94
2022/12/31 05:19:50;;;;;;;1.63;0.73;;;;;;;12.06;100.00;100229.69;5033748;28;20556;-94
2022/12/31 05:24:59;;;;;;;2.28;0.70;;;;;;;12.22;100.00;100245.66;5084445;22;20082;-96
2022/12/31 05:27:40;;;;;;;4.57;1.00;;;;;;;12.32;100.00;100241.03;5093480;28;20024;-95
2022/12/31 05:33:26;;;;;;;1.83;0.77;;;;;;;12.41;100.00;100260.69;5052053;22;20104;-95
2022/12/31 05:35:58;;;;;;;1.42;0.90;;;;;;;12.47;100.00;100263.97;5033848;28;20067;-96
2022/12/31 05:38:29;;;;;;;0.65;0.65;;;;;;;12.49;100.00;100267.38;5033499;28;20025;-96
2022/12/31 05:41:20;;;;;;;0.93;0.88;;;;;;;12.52;100.00;100269.84;5033853;28;20148;-96
2022/12/31 05:43:55;;;;;;;2.85;0.63;;;;;;;12.58;100.00;100262.75;5060561;22;20062;-96
2022/12/31 05:46:29;;;;;;;2.75;0.80;;;;;;;12.60;100.00;100261.78;5331798;22;20000;-95
2022/12/31 05:49:06;;;;;;;1.90;0.65;;;;;;;12.63;100.00;100264.31;5053767;28;20037;-95
2022/12/31 05:51:31;;;;;;;1.42;0.50;;;;;;;12.63;100.00;100268.63;5053392;28;20560;-95
2022/12/31 05:54:05;;;;;;;0.90;0.47;;;;;;;12.62;100.00;100270.41;5053522;28;20048;-96
2022/12/31 05:56:43;;;;;;;0.90;0.60;;;;;;;12.64;100.00;100258.19;5053661;28;20025;-94
2022/12/31 05:59:14;;;;;;;1.70;0.90;;;;;;;12.67;100.00;100254.63;5052945;28;20029;-96
2022/12/31 06:01:44;;;;;;;1.05;0.50;;;;;;;12.71;100.00;100258.84;5053453;28;20025;-96
2022/12/31 06:06:55;;;;;;;1.52;0.60;;;;;;;12.73;100.00;100262.22;5060620;22;20068;-95
2022/12/31 06:09:27;;;;;;;0.93;0.68;;;;;;;12.74;100.00;100240.50;5060366;22;20111;-96
2022/12/31 06:11:53;;;;;;;1.85;0.68;;;;;;;12.76;100.00;100264.72;5064924;22;20102;-96
2022/12/31 06:14:27;;;;;;;1.98;0.55;;;;;;;12.79;100.00;100282.00;5057894;22;20060;-96
2022/12/31 06:17:08;;;;;;;1.70;0.60;;;;;;;12.83;100.00;100271.41;4976347;28;20047;-96
2022/12/31 06:19:36;;;;;;;1.38;0.65;;;;;;;12.92;100.00;100292.88;4978208;28;20034;-96
2022/12/31 06:22:08;;;;;;;0.80;0.52;;;;;;;12.94;100.00;100276.28;4977868;28;20027;-96
2022/12/31 06:24:39;;;;;;;0.88;0.70;;;;;;;13.08;100.00;100281.00;4983725;28;20033;-96
2022/12/31 06:27:14;;;;;;;0.52;0.50;;;;;;;13.10;100.00;100281.81;4978678;28;20026;-96
2022/12/31 06:29:50;;;;;;;0.77;0.47;;;;;;;13.15;100.00;100289.47;4977835;28;20041;-96
2022/12/31 06:32:19;;;;;;;0.77;0.63;;;;;;;13.17;100.00;100297.25;4977477;28;20046;-96
2022/12/31 06:34:50;;;;;;;0.50;0.50;;;;;;;13.19;100.00;100285.00;4977862;28;20460;-96
2022/12/31 06:37:21;;;;;;;0.60;0.50;;;;;;;13.28;100.00;100282.09;4977335;28;20031;-96
2022/12/31 06:39:53;;;;;;;1.75;0.57;;;;;;;13.35;100.00;100275.72;4977361;28;20121;-96
2022/12/31 06:44:58;;;;;;;1.27;0.70;;;;;;;13.49;100.00;100282.25;5065086;22;20049;-96
2022/12/31 06:47:31;;;;;;;2.15;0.70;;;;;;;13.53;100.00;100284.69;5058374;28;20037;-95
2022/12/31 06:55:09;;;;;;;1.02;0.60;;;;;;;13.70;100.00;100294.50;5058672;22;20049;-95
2022/12/31 06:57:43;;;;;;;1.63;0.80;;;;;;;13.72;100.00;100279.63;5043151;22;20107;-95
2022/12/31 07:00:18;;;;;;;2.70;0.93;;;;;;;13.79;100.00;100276.78;5016473;28;20463;-95
2022/12/31 07:03:27;;;;;;;1.05;0.60;;;;;;;13.83;100.00;100281.00;5019212;28;20041;-94
2022/12/31 07:06:12;;;;;;;1.20;0.60;;;;;;;13.83;100.00;100291.44;5020937;28;20022;-95
2022/12/31 07:11:22;;;;;;;3.53;0.90;;;;;;;13.94;100.00;100283.16;5044222;23;20383;-94
2022/12/31 07:14:18;;;;;;;1.83;0.70;;;;;;;14.01;100.00;100285.50;5036257;28;20138;-95
2022/12/31 07:17:26;;;;;;;2.03;0.60;;;;;;;13.97;100.00;100290.88;5035701;28;20425;-94
2022/12/31 07:20:15;;;;;;;4.18;1.10;;;;;;;14.02;100.00;100299.38;5035980;28;20086;-92
2022/12/31 07:22:40;;;;;;;1.95;0.90;;;;;;;14.02;100.00;100297.63;5035349;28;20037;-92
2022/12/31 07:25:07;;;;;;;1.53;0.67;;;;;;;14.05;100.00;100307.09;5035010;28;20084;-91
2022/12/31 07:28:02;;;;;;;2.05;0.80;;;;;;;14.01;100.00;100293.31;5035539;28;20022;-92
2022/12/31 07:30:46;;;;;;;1.92;0.80;;;;;;;13.99;100.00;100308.19;5035752;28;20083;-93
2022/12/31 07:33:46;;;;;;;1.77;0.80;;;;;;;13.92;100.00;100306.72;5035096;28;20025;-94
2022/12/31 07:36:44;;;;;;;1.27;0.68;;;;;;;13.95;100.00;100304.00;5033788;28;20041;-87
2022/12/31 07:39:15;;;;;;;2.30;0.82;;;;;;;13.96;100.00;100299.63;5033659;28;20061;-88
2022/12/31 07:42:12;;;;;;;2.53;1.00;;;;;;;14.00;100.00;100304.66;5034636;28;20124;-88
2022/12/31 07:45:00;;;;;;;4.05;1.15;;;;;;;13.96;100.00;100307.44;5034328;28;20026;-87
2022/12/31 07:47:27;;;;;;;2.15;0.80;;;;;;;14.00;100.00;100309.88;5033602;28;20018;-87
2022/12/31 07:50:15;;;;;;;2.08;1.15;;;;;;;14.02;100.00;100302.84;5034323;28;20029;-87
2022/12/31 07:52:59;;;;;;;3.20;1.23;;;;;;;14.00;100.00;100312.50;5013251;28;20034;-89
2022/12/31 07:55:25;;;;;;;2.88;0.80;;;;;;;14.03;100.00;100315.00;5039460;28;20016;-89
2022/12/31 07:58:46;;;;;;;2.10;0.90;;;;;;;13.89;100.00;100299.88;5034990;28;20437;-96
2022/12/31 08:01:21;;;;;;;2.45;1.10;;;;;;;13.85;100.00;100305.22;5024891;28;20033;-92
2022/12/31 08:04:26;;;;;;;2.25;1.10;;;;;;;13.87;100.00;100311.25;5035612;28;20029;-91
2022/12/31 08:07:35;;;;;;;1.58;0.90;;;;;;;13.77;100.00;100305.53;5035038;28;20029;-91
2022/12/31 08:10:24;;;;;;;2.95;0.93;;;;;;;13.77;100.00;100323.81;5032283;28;20045;-91
2022/12/31 08:13:01;;;;;;;2.15;1.17;;;;;;;13.69;100.00;100331.03;5034803;28;20034;-92
2022/12/31 08:15:39;;;;;;;2.83;1.30;;;;;;;13.66;100.00;100352.88;5033724;28;20040;-93
2022/12/31 08:18:08;;;;;;;4.57;1.15;;;;;;;13.63;100.00;100349.53;5054538;28;20110;-92
2022/12/31 08:21:13;;;;;;;2.83;0.82;;;;;;;13.72;100.00;100354.41;5054066;28;20457;-92
2022/12/31 08:23:41;;;;;;;3.20;0.93;;;;;;;13.61;100.00;100382.63;5054937;28;20120;-94
2022/12/31 08:33:36;;;;;;;2.33;1.00;;;;;;;13.59;100.00;100413.97;5056053;28;20044;-93
2022/12/31 08:36:23;;;;;;;1.70;1.00;;;;;;;13.63;100.00;100419.91;5053485;28;20485;-93
2022/12/31 08:39:04;;;;;;;1.75;0.60;;;;;;;13.61;100.00;100419.97;5050684;28;20051;-93
2022/12/31 08:41:53;;;;;;;1.58;1.08;;;;;;;13.69;100.00;100433.59;5053428;28;20025;-91
2022/12/31 08:45:00;;;;;;;2.88;0.98;;;;;;;13.75;100.00;100440.34;5053411;28;20048;-92
2022/12/31 08:47:48;;;;;;;3.97;1.17;;;;;;;13.81;100.00;100447.94;5054019;28;20025;-87
2022/12/31 08:50:19;;;;;;;1.42;0.77;;;;;;;13.75;100.00;100451.63;5052583;28;20052;-89
2022/12/31 08:55:27;;;;;;;1.50;0.90;;;;;;;13.72;100.00;100450.88;5040339;23;20057;-89
2022/12/31 08:58:31;;;;;;;1.93;1.00;;;;;;;13.70;100.00;100461.38;5033385;28;20091;-91
2022/12/31 09:01:13;;;;;;;2.35;1.00;;;;;;;13.66;100.00;100465.00;5033775;28;20044;-90
2022/12/31 09:04:02;;;;;;;1.83;1.10;;;;;;;13.68;100.00;100494.47;5033581;28;20018;-89
2022/12/31 09:06:45;;;;;;;2.58;1.00;;;;;;;13.71;100.00;100499.59;5033865;28;20474;-88
2022/12/31 09:09:31;;;;;;;1.88;0.88;;;;;;;13.83;100.00;100500.09;5033435;28;20434;-90
2022/12/31 09:12:18;;;;;;;3.38;1.23;;;;;;;13.78;100.00;100499.38;5033638;28;20523;-90
2022/12/31 09:14:46;;;;;;;;;;;;;;;13.80;100.00;100508.84;5049856;22;20041;-88
2022/12/31 09:17:30;;;;;;;3.13;0.90;;;;;;;13.81;100.00;100512.31;5033112;28;19919;-90
2022/12/31 09:19:55;;;;;;;1.02;0.65;;;;;;;13.75;100.00;100516.81;5034016;28;20037;-89
2022/12/31 09:22:21;;;;;;;1.20;1.03;;;;;;;13.76;100.00;100549.00;5033185;28;20033;-89
2022/12/31 09:24:50;;;;;;;2.83;1.30;;;;;;;13.74;100.00;100546.41;5033586;28;20052;-90
2022/12/31 09:27:45;;;;;;;1.95;0.85;;;;;;;13.69;100.00;100556.16;5033748;28;20071;-90
2022/12/31 09:30:37;;;;;;;1.70;0.95;;;;;;;13.61;100.00;100539.94;5033588;28;20120;-91
2022/12/31 09:33:05;;;;;;;4.05;1.10;;;;;;;13.50;100.00;100542.88;5033552;28;20025;-91
2022/12/31 09:35:33;;;;;;;3.58;0.95;;;;;;;13.44;100.00;100551.75;5033947;28;20029;-90
2022/12/31 09:38:11;;;;;;;1.15;0.70;;;;;;;13.38;100.00;100546.72;5033753;28;20030;-91
2022/12/31 09:41:13;;;;;;;1.00;0.90;;;;;;;13.35;100.00;100546.78;5047283;28;20014;-91
2022/12/31 09:44:13;;;;;;;1.98;0.80;;;;;;;13.32;100.00;100554.69;5033585;28;20071;-90
2022/12/31 09:50:36;;;;;;;1.80;0.98;;;;;;;13.29;100.00;100557.41;5034338;28;20044;-94
2022/12/31 09:53:28;;;;;;;1.90;1.10;;;;;;;13.28;100.00;100556.56;5037322;28;20037;-94
2022/12/31 09:56:14;;;;;;;1.63;1.02;;;;;;;13.28;100.00;100553.94;5037589;28;20091;-93
2022/12/31 09:59:13;;;;;;;1.85;1.15;;;;;;;13.32;100.00;100549.50;5075505;22;20560;-92
2022/12/31 10:02:14;;;;;;;2.05;1.00;;;;;;;13.30;100.00;100553.88;5077269;28;20020;-92
2022/12/31 10:05:23;;;;;;;2.28;1.10;;;;;;;13.34;100.00;100555.50;4976376;28;20058;-91
2022/12/31 10:08:24;;;;;;;2.08;0.93;;;;;;;13.35;100.00;100551.13;5076813;28;20028;-91
2022/12/31 10:11:11;;;;;;;2.50;1.10;;;;;;;13.39;100.00;100547.53;5076858;28;20038;-91
2022/12/31 10:14:01;;;;;;;3.15;1.30;;;;;;;13.43;100.00;100564.84;5076236;28;20120;-91
2022/12/31 10:16:45;;;;;;;3.42;1.38;;;;;;;13.47;100.00;100568.19;5076971;28;20039;-92
2022/12/31 10:20:02;;;;;;;1.65;1.15;;;;;;;13.50;100.00;100557.69;5076794;28;20028;-91
2022/12/31 10:26:58;;;;;;;4.28;1.42;;;;;;;13.57;100.00;100553.97;4956662;29;20069;-94
2022/12/31 10:29:39;;;;;;;2.00;1.25;;;;;;;13.64;100.00;100536.34;4975799;28;20050;-93
2022/12/31 10:32:15;;;;;;;2.78;1.40;;;;;;;13.71;100.00;100543.94;5056500;28;20033;-94
2022/12/31 10:35:05;;;;;;;3.28;1.38;;;;;;;13.72;100.00;100543.03;5056684;28;20017;-94
2022/12/31 10:38:00;;;;;;;2.33;1.20;;;;;;;13.73;100.00;100529.09;5056746;28;20033;-94
2022/12/31 10:40:50;;;;;;;3.05;1.33;;;;;;;13.74;100.00;100517.72;5053601;28;20560;-93
2022/12/31 10:43:34;;;;;;;4.25;1.58;;;;;;;13.83;100.00;100536.59;5056385;28;20040;-95
2022/12/31 10:47:02;;;;;;;5.72;1.80;;;;;;;13.86;100.00;100521.69;5069103;28;20030;-91
2022/12/31 10:50:05;;;;;;;4.68;1.50;;;;;;;13.89;100.00;100526.81;4995316;28;20545;-94
2022/12/31 10:53:16;;;;;;;4.68;1.45;;;;;;;13.92;100.00;100535.41;5030788;28;20037;-93
2022/12/31 10:56:07;;;;;;;4.00;1.70;;;;;;;13.97;100.00;100549.16;5056098;28;20029;-95
2022/12/31 10:59:13;;;;;;;3.63;1.50;;;;;;;14.01;100.00;100546.41;5056304;28;20049;-92
2022/12/31 11:02:17;;;;;;;3.65;1.85;;;;;;;14.01;100.00;100540.34;5055811;28;20033;-90
2022/12/31 11:08:27;;;;;;;3.70;1.75;;;;;;;14.06;100.00;100548.84;5056203;28;20055;-94
2022/12/31 11:11:12;;;;;;;3.65;1.70;;;;;;;14.09;100.00;100550.50;5059004;28;20032;-94
2022/12/31 11:14:07;;;;;;;3.95;1.60;;;;;;;14.10;100.00;100567.84;5055470;28;20032;-93
2022/12/31 11:17:12;;;;;;;4.90;1.73;;;;;;;14.13;100.00;100562.53;5056049;28;20029;-96
2022/12/31 11:23:00;;;;;;;2.40;1.30;;;;;;;14.22;100.00;100564.81;5056192;28;20035;-94
2022/12/31 11:25:49;;;;;;;3.10;1.38;;;;;;;14.23;100.00;100560.47;5055195;28;20021;-93
2022/12/31 11:28:58;;;;;;;1.85;1.20;;;;;;;14.25;100.00;100550.81;5055419;28;20178;-92
2022/12/31 11:31:53;;;;;;;2.47;1.23;;;;;;;14.27;100.00;100569.88;5055142;28;20032;-90
2022/12/31 11:34:47;;;;;;;4.13;1.50;;;;;;;14.38;100.00;100580.78;5055514;28;20043;-94
2022/12/31 11:37:40;;;;;;;6.43;1.70;;;;;;;14.38;99.18;100583.41;5055615;28;20037;-93
2022/12/31 11:40:35;;;;;;;3.25;1.40;;;;;;;14.41;98.67;100580.69;5055243;28;20558;-92
2022/12/31 11:43:20;;;;;;;3.92;1.60;;;;;;;14.45;98.50;100591.88;5055140;28;20458;-92
2022/12/31 11:46:30;;;;;;;4.40;1.60;;;;;;;14.45;98.86;100591.88;5054989;28;20568;-94
2022/12/31 11:49:32;;;;;;;3.67;1.42;;;;;;;14.44;99.67;100588.44;5047581;28;20497;-94
2022/12/31 11:52:10;;;;;;;3.88;1.40;;;;;;;14.45;100.00;100576.22;5055168;28;20033;-91
2022/12/31 11:55:11;;;;;;;5.13;1.70;;;;;;;14.39;98.40;100581.66;5055116;28;20032;-91
2022/12/31 11:57:38;;;;;;;5.82;1.60;;;;;;;14.38;99.53;100591.25;5054488;28;20544;-87
2022/12/31 12:00:19;;;;;;;3.63;1.60;;;;;;;14.34;99.38;100571.38;5054385;28;20025;-95
2022/12/31 12:02:49;;;;;;;4.55;1.80;;;;;;;14.31;100.00;100589.75;5055401;28;20021;-94
2022/12/31 12:05:21;;;;;;;4.53;1.70;;;;;;;14.29;99.61;100581.13;5049708;23;20081;-94
2022/12/31 12:07:48;;;;;;;4.05;1.75;;;;;;;14.28;100.00;100588.13;5034662;28;20065;-94
2022/12/31 12:10:30;;;;;;;;;;;;;;;14.25;100.00;100583.00;5042585;22;20494;-95
2022/12/31 12:13:10;;;;;;;5.10;1.52;;;;;;;14.23;100.00;100579.56;5033772;28;19920;-93
2022/12/31 12:15:36;;;;;;;4.60;1.80;;;;;;;14.23;100.00;100578.75;5034607;28;20057;-94
2022/12/31 12:18:12;;;;;;;2.37;1.53;;;;;;;14.20;100.00;100579.69;5034437;28;20036;-94
2022/12/31 12:20:39;;;;;;;4.25;1.83;;;;;;;14.16;100.00;100572.88;5034793;28;20048;-93
2022/12/31 12:23:25;;;;;;;3.78;1.60;;;;;;;14.19;100.00;100577.97;5034920;28;20100;-93
2022/12/31 12:25:51;;;;;;;4.68;1.58;;;;;;;14.13;100.00;100565.16;5034531;28;20029;-94
2022/12/31 12:28:18;;;;;;;3.50;1.35;;;;;;;14.11;100.00;100569.56;5034398;28;20018;-94
2022/12/31 12:31:20;;;;;;;4.03;1.60;;;;;;;14.09;100.00;100587.88;5034761;28;20075;-94
2022/12/31 12:33:46;;;;;;;4.50;1.80;;;;;;;14.05;100.00;100584.53;4951781;28;20108;-93
2022/12/31 12:36:27;;;;;;;4.30;1.50;;;;;;;14.04;100.00;100584.56;5034717;28;20060;-94
2022/12/31 12:41:25;;;;;;;3.83;1.75;;;;;;;14.03;100.00;100588.94;5040848;22;20137;-91
2022/12/31 12:44:13;;;;;;;2.95;1.60;;;;;;;14.00;100.00;100567.34;5034207;28;20374;-93
2022/12/31 12:46:43;;;;;;;3.75;1.55;;;;;;;13.99;100.00;100555.19;5034378;28;20378;-94
2022/12/31 12:49:27;;;;;;;3.10;1.30;;;;;;;13.99;100.00;100569.06;5034399;28;20429;-93
2022/12/31 12:52:24;;;;;;;4.50;1.50;;;;;;;14.03;100.00;100555.03;5034957;28;20025;-94
2022/12/31 12:55:06;;;;;;;5.47;1.83;;;;;;;14.07;100.00;100562.75;5033752;28;20459;-92
2022/12/31 12:57:48;;;;;;;6.35;2.00;;;;;;;14.09;100.00;100561.81;5034717;28;20115;-93
2022/12/31 13:00:16;;;;;;;2.90;1.52;;;;;;;14.10;100.00;100566.13;5035341;28;20087;-96
2022/12/31 13:03:06;;;;;;;3.10;1.50;;;;;;;14.13;100.00;100562.53;5036079;28;20017;-96
2022/12/31 13:05:53;;;;;;;3.35;1.50;;;;;;;14.13;100.00;100570.38;5034461;28;20030;-95
2022/12/31 13:08:54;;;;;;;4.70;1.80;;;;;;;14.16;100.00;100580.72;5033793;28;20029;-95
2022/12/31 13:11:33;;;;;;;2.60;1.73;;;;;;;14.20;99.94;100567.50;5033978;28;20164;-96
2022/12/31 13:14:03;;;;;;;6.00;1.80;;;;;;;14.23;98.97;100565.69;5033897;28;20026;-94
2022/12/31 13:16:41;;;;;;;4.60;1.83;;;;;;;14.24;97.61;100557.78;5043853;28;20033;-96
2022/12/31 13:19:47;;;;;;;5.35;1.90;;;;;;;14.30;97.39;100585.44;5043921;28;20100;-93
2022/12/31 13:22:30;;;;;;;4.63;1.90;;;;;;;14.32;96.78;100571.41;5034567;28;20030;-87